map of PVK home
Great Circle Mapper logo
PVK - Airport
Location
City:  Preveza/Lefkada, Greece
Near (Alt.):Lefkas
Name:Aktion National
ICAO / IATA:LGPZ / PVK

Details
Type:Airport (Aerodrome, Airfield)
Use:Military
Latitude:3855'32"N (38.925467)
Longitude:2045'55"E (20.765311)
Datum:WGS 1984
Elevation:11 ft (3 m)
Variation:3.88E (WMM2015 magnetic declination)
0.10 annual change
Runways:1
Longest:9419 × 148 ft (2871 × 45 m), paved

Time
Time Zone:UTC+2 (DST+3)
Local Time:

Weather
METAR:LGPZ 301620Z 20015KT 9999 FEW015 FEW018TCU SCT030 BKN090 14/08 Q0998

Related Locations
Nearby:
Farthest:CHT: 11486 mi / 18484 km
Waitangi [Tuuta], Chatham Islands, NZ

Find:

   beyond  
but within

Other Information
Maps:
NOTAMs:
Links:
Sources:

  
flag of Greece   

Sectional Chart

Flight Planning
at skyvector.com

Satellite Image

Google Maps Satellite View

 

Copyright © 2004-2015 Karl L. Swartz. All rights reserved.
The Great Circle Mapper name and logo are trademarks of the Great Circle Mapper.
All other trademarks mentioned herein belong to their respective owners.
Please see credits for attibutions and further copyright information.

  Follow gcmap on Facebook Follow gcmap on Twitter

hCard Microformat

Geo Microformat